Cornville, Maine
Current Conditions -  °F | °C
As of 9:35 AM on Thursday 29 Jan 2015 (Local Time) from KWVL Reporting Station
Clear Clear  
Wind Chill:   Ceiling: Unl
Heat Index:   Visibility: 10mi
Dew Point: -2°   Wind: 0mph
Humidity: 62%   Direction: NA
Pressure: 30.26"   Gusts: NA
Location:  44.8163°N, 69.6519°W
Report Text: KWVL 291435Z 00000KT 10SM CLR M13/M19 A3026 RMK AO1
Loading
Personal Weather Stations






























Interactive Weather Map New forecast layout! Learn more

10-Day Weather Forecast

Advertisements
Track Severe Weather on mobile